Time;durP1;ratioP1;P1;durP2;ratioP2;P2;SDS_P1;SDS_P2;PMS_P1;PMS_P2;Temp;Humidity;BMP_temperature;BMP_pressure;BME280_temperature;BME280_humidity;BME280_pressure;Samples;Min_cycle;Max_cycle;Signal;HPM_P1;HPM_P2
2021/05/15 00:00:39;;;;;;;41.50;22.90;;;9.50;99.90;;;;;;5060508;28;20192;-66
2021/05/15 00:03:06;;;;;;;40.37;22.70;;;9.50;99.90;;;;;;5064015;28;20223;-66
2021/05/15 00:05:33;;;;;;;40.53;22.40;;;9.50;99.90;;;;;;5064079;28;20257;-66
2021/05/15 00:08:03;;;;;;;43.33;24.43;;;9.50;99.90;;;;;;5064490;28;20685;-66
2021/05/15 00:10:33;;;;;;;41.43;23.47;;;9.40;99.90;;;;;;5060983;28;20223;-66
2021/05/15 00:13:00;;;;;;;39.87;22.83;;;9.40;99.90;;;;;;5062810;28;20563;-66
2021/05/15 00:15:27;;;;;;;41.10;23.00;;;9.30;99.90;;;;;;5063479;28;20224;-66
2021/05/15 00:17:55;;;;;;;40.20;22.80;;;9.30;99.90;;;;;;5064927;28;20211;-66
2021/05/15 00:20:21;;;;;;;43.73;22.90;;;9.20;99.90;;;;;;5057975;28;20199;-66
2021/05/15 00:22:48;;;;;;;42.97;23.37;;;9.20;99.90;;;;;;5063705;28;20204;-65
2021/05/15 00:25:19;;;;;;;39.57;23.33;;;9.10;99.90;;;;;;5063810;28;20675;-66
2021/05/15 00:27:46;;;;;;;38.10;22.43;;;9.10;99.90;;;;;;5055620;28;20200;-66
2021/05/15 00:30:15;;;;;;;40.07;22.80;;;9.10;99.90;;;;;;5062384;28;20215;-66
2021/05/15 00:32:43;;;;;;;43.07;24.57;;;9.10;99.90;;;;;;5061019;28;20199;-66
2021/05/15 00:35:14;;;;;;;41.37;24.50;;;9.10;99.90;;;;;;5067982;28;20196;-66
2021/05/15 00:37:41;;;;;;;42.63;24.00;;;9.20;99.90;;;;;;5056238;28;20228;-66
2021/05/15 00:40:10;;;;;;;42.87;25.00;;;9.20;99.90;;;;;;5064787;28;20196;-66
2021/05/15 00:42:37;;;;;;;48.50;24.77;;;9.20;99.90;;;;;;5063298;28;20199;-66
2021/05/15 00:45:06;;;;;;;46.53;25.77;;;9.30;99.90;;;;;;5063754;28;20243;-66
2021/05/15 00:47:33;;;;;;;47.93;25.33;;;9.30;99.90;;;;;;5064252;28;20230;-66
2021/05/15 00:50:00;;;;;;;46.40;24.80;;;9.30;99.90;;;;;;5060693;28;20226;-66
2021/05/15 00:52:33;;;;;;;40.13;23.60;;;9.20;99.90;;;;;;5058655;28;20216;-66
2021/05/15 00:55:00;;;;;;;38.93;22.70;;;9.30;99.90;;;;;;5060415;28;20203;-66
2021/05/15 00:57:27;;;;;;;46.17;24.73;;;9.30;99.90;;;;;;5062176;28;20220;-66
2021/05/15 00:59:54;;;;;;;44.03;24.70;;;9.30;99.90;;;;;;5065620;28;20219;-66
2021/05/15 01:02:21;;;;;;;45.13;25.30;;;9.30;99.90;;;;;;5060971;28;20216;-66
2021/05/15 01:04:47;;;;;;;46.23;24.50;;;9.30;99.90;;;;;;5063242;28;20275;-66
2021/05/15 01:07:14;;;;;;;47.60;26.00;;;9.30;99.90;;;;;;5060345;28;20192;-66
2021/05/15 01:09:42;;;;;;;45.40;25.80;;;9.30;99.90;;;;;;5065858;28;20314;-66
2021/05/15 01:12:10;;;;;;;44.93;25.50;;;9.30;99.90;;;;;;5055523;28;20579;-65
2021/05/15 01:14:38;;;;;;;52.03;25.97;;;9.30;99.90;;;;;;5066176;28;20188;-66
2021/05/15 01:17:07;;;;;;;45.87;25.77;;;9.30;99.90;;;;;;5065341;28;20196;-66
2021/05/15 01:19:34;;;;;;;47.23;25.53;;;9.30;99.90;;;;;;5061115;28;20710;-66
2021/05/15 01:22:05;;;;;;;51.30;26.50;;;9.30;99.90;;;;;;5062861;28;20200;-66
2021/05/15 01:24:32;;;;;;;53.33;28.43;;;9.30;99.90;;;;;;5063141;28;20787;-66
2021/05/15 01:27:00;;;;;;;51.37;27.33;;;9.40;99.90;;;;;;5060082;28;20200;-66
2021/05/15 01:29:27;;;;;;;46.37;26.03;;;9.30;99.90;;;;;;5065005;28;20246;-66
2021/05/15 01:31:54;;;;;;;51.37;28.03;;;9.30;99.90;;;;;;5065563;28;20695;-66
2021/05/15 01:34:21;;;;;;;49.33;25.67;;;9.30;99.90;;;;;;5061989;28;20675;-66
2021/05/15 01:36:47;;;;;;;43.63;25.10;;;9.40;99.90;;;;;;5060233;28;20200;-66
2021/05/15 01:39:16;;;;;;;52.07;27.17;;;9.40;99.90;;;;;;5061586;28;20585;-66
2021/05/15 01:41:43;;;;;;;50.57;25.53;;;9.40;99.90;;;;;;5060801;28;20295;-67
2021/05/15 01:44:10;;;;;;;48.43;25.60;;;9.40;99.90;;;;;;5056664;28;20193;-66
2021/05/15 01:46:37;;;;;;;51.00;25.70;;;9.40;99.90;;;;;;5063740;28;20223;-66
2021/05/15 01:49:05;;;;;;;48.90;25.27;;;9.40;99.90;;;;;;5065442;28;20239;-66
2021/05/15 01:51:32;;;;;;;48.47;25.73;;;9.40;99.90;;;;;;5062829;28;20218;-66
2021/05/15 01:53:59;;;;;;;50.87;27.00;;;9.30;99.90;;;;;;5062832;28;20226;-66
2021/05/15 01:56:28;;;;;;;51.63;27.43;;;9.30;99.90;;;;;;5059134;28;20269;-66
2021/05/15 01:58:55;;;;;;;50.83;27.43;;;9.30;99.90;;;;;;5064188;28;20215;-67
2021/05/15 02:01:24;;;;;;;53.47;27.83;;;9.30;99.90;;;;;;5064547;28;20197;-66
2021/05/15 02:03:51;;;;;;;50.90;26.50;;;9.30;99.90;;;;;;5061614;28;20257;-66
2021/05/15 02:06:18;;;;;;;50.67;26.30;;;9.30;99.90;;;;;;5062492;28;20200;-66
2021/05/15 02:08:46;;;;;;;55.73;28.50;;;9.20;99.90;;;;;;5053755;28;20282;-66
2021/05/15 02:11:15;;;;;;;50.20;25.97;;;9.30;99.90;;;;;;5054873;28;20720;-66
2021/05/15 02:13:44;;;;;;;54.50;27.80;;;9.30;99.90;;;;;;5062718;28;20220;-67
2021/05/15 02:16:10;;;;;;;59.97;28.47;;;9.30;99.90;;;;;;5060068;28;20192;-66
2021/05/15 02:18:38;;;;;;;56.17;28.67;;;9.30;99.90;;;;;;5061578;28;20654;-67
2021/05/15 02:21:05;;;;;;;59.20;28.97;;;9.20;99.90;;;;;;5062508;28;20192;-67
2021/05/15 02:23:32;;;;;;;52.67;28.30;;;9.30;99.90;;;;;;5060624;28;20223;-66
2021/05/15 02:25:59;;;;;;;57.77;29.13;;;9.30;99.90;;;;;;5062068;28;20200;-66
2021/05/15 02:28:25;;;;;;;62.03;31.23;;;9.30;99.90;;;;;;5062832;28;20188;-67
2021/05/15 02:30:53;;;;;;;67.43;33.83;;;9.20;99.90;;;;;;5062689;28;20563;-66
2021/05/15 02:33:20;;;;;;;62.07;31.23;;;9.20;99.90;;;;;;5057657;28;20265;-66
2021/05/15 02:35:47;;;;;;;70.73;34.63;;;9.20;99.90;;;;;;5057371;28;20870;-66
2021/05/15 02:38:18;;;;;;;77.73;35.53;;;9.20;99.90;;;;;;5062989;28;20255;-66
2021/05/15 02:40:46;;;;;;;83.10;35.43;;;9.10;99.90;;;;;;5060072;28;20234;-66
2021/05/15 02:43:13;;;;;;;71.33;32.20;;;9.10;99.90;;;;;;5055701;28;20788;-66
2021/05/15 02:45:40;;;;;;;74.97;35.30;;;9.00;99.90;;;;;;5058012;28;20249;-67
2021/05/15 02:48:07;;;;;;;69.70;34.40;;;9.00;99.90;;;;;;5061086;28;20224;-66
2021/05/15 02:50:34;;;;;;;74.37;34.37;;;8.90;99.90;;;;;;5062272;28;20239;-66
2021/05/15 02:53:01;;;;;;;77.40;36.03;;;8.90;99.90;;;;;;5064335;28;20227;-66
2021/05/15 02:55:28;;;;;;;80.37;37.43;;;8.80;99.90;;;;;;5060813;28;20199;-67
2021/05/15 02:57:55;;;;;;;78.93;36.83;;;8.80;99.90;;;;;;5058946;28;20205;-67
2021/05/15 03:00:25;;;;;;;80.60;37.40;;;8.80;99.90;;;;;;5064919;28;20192;-66
2021/05/15 03:02:52;;;;;;;92.90;38.17;;;8.70;99.90;;;;;;5060208;28;20197;-66
2021/05/15 03:05:24;;;;;;;88.03;38.03;;;8.80;99.90;;;;;;5064033;28;20199;-66
2021/05/15 03:07:51;;;;;;;92.97;38.83;;;8.80;99.90;;;;;;5055397;28;20201;-67
2021/05/15 03:10:19;;;;;;;88.77;38.00;;;8.70;99.90;;;;;;5063435;28;20259;-66
2021/05/15 03:12:46;;;;;;;93.43;38.27;;;8.70;99.90;;;;;;5060356;28;20215;-66
2021/05/15 03:15:14;;;;;;;82.00;36.20;;;8.70;99.90;;;;;;5065130;28;20664;-67
2021/05/15 03:17:42;;;;;;;89.50;38.30;;;8.70;99.90;;;;;;5064243;28;20196;-66
2021/05/15 03:20:13;;;;;;;86.80;39.10;;;8.70;99.90;;;;;;5064852;28;20208;-66
2021/05/15 03:22:45;;;;;;;82.73;38.60;;;8.70;99.90;;;;;;5059982;28;20544;-66
2021/05/15 03:25:12;;;;;;;83.63;37.17;;;8.60;99.90;;;;;;5063121;28;20189;-66
2021/05/15 03:27:39;;;;;;;82.27;37.10;;;8.60;99.90;;;;;;5064456;28;20303;-66
2021/05/15 03:30:09;;;;;;;92.97;39.43;;;8.60;99.90;;;;;;5067053;28;20212;-67
2021/05/15 03:32:36;;;;;;;83.53;37.50;;;8.50;99.90;;;;;;5067457;28;20202;-66
2021/05/15 03:35:04;;;;;;;85.67;38.60;;;8.40;99.90;;;;;;5067935;28;20238;-66
2021/05/15 03:37:31;;;;;;;95.00;38.63;;;8.30;99.90;;;;;;5061793;28;20224;-66
2021/05/15 03:39:58;;;;;;;91.30;38.70;;;8.30;99.90;;;;;;5064960;28;20233;-66
2021/05/15 03:42:25;;;;;;;90.50;37.33;;;8.30;99.90;;;;;;5063715;28;20223;-66
2021/05/15 03:44:52;;;;;;;92.10;37.43;;;8.30;99.90;;;;;;5064717;28;20191;-66
2021/05/15 03:47:22;;;;;;;95.23;37.97;;;8.30;99.90;;;;;;5062724;28;20195;-66
2021/05/15 03:49:48;;;;;;;99.50;40.63;;;8.30;99.90;;;;;;5068111;28;20552;-66
2021/05/15 03:52:15;;;;;;;90.13;37.30;;;8.30;99.90;;;;;;5059732;28;20258;-66
2021/05/15 03:54:43;;;;;;;93.63;39.37;;;8.20;99.90;;;;;;5063274;28;20294;-66
2021/05/15 03:57:10;;;;;;;94.67;39.00;;;8.20;99.90;;;;;;5062228;28;20185;-66
2021/05/15 03:59:37;;;;;;;96.30;39.20;;;8.10;99.90;;;;;;5063539;28;20195;-66
2021/05/15 04:02:04;;;;;;;96.87;40.03;;;8.10;99.90;;;;;;5065314;28;20319;-66
2021/05/15 04:04:31;;;;;;;95.73;39.47;;;8.10;99.90;;;;;;5063822;28;20409;-66
2021/05/15 04:06:58;;;;;;;90.17;37.77;;;8.00;99.90;;;;;;5063390;28;20637;-66
2021/05/15 04:09:27;;;;;;;80.97;35.17;;;8.00;99.90;;;;;;5066432;28;20579;-66
2021/05/15 04:11:53;;;;;;;88.73;38.30;;;7.90;99.90;;;;;;5063850;28;20236;-66
2021/05/15 04:14:27;;;;;;;89.30;36.47;;;7.90;99.90;;;;;;5061394;28;20197;-66
2021/05/15 04:17:14;;;;;;;87.80;36.57;;;7.90;99.90;;;;;;5065641;28;20282;-66
2021/05/15 04:19:40;;;;;;;82.70;35.67;;;7.90;99.90;;;;;;5062109;28;20227;-66
2021/05/15 04:22:09;;;;;;;90.60;36.50;;;7.90;99.90;;;;;;5065426;28;20199;-66
2021/05/15 04:24:37;;;;;;;87.83;36.63;;;8.00;99.90;;;;;;5065139;28;20223;-66
2021/05/15 04:27:06;;;;;;;100.40;39.17;;;8.00;99.90;;;;;;5061582;28;20200;-66
2021/05/15 04:29:33;;;;;;;101.17;38.03;;;8.10;99.90;;;;;;5064782;28;20773;-66
2021/05/15 04:32:04;;;;;;;85.43;35.67;;;8.10;99.90;;;;;;5066199;28;20241;-66
2021/05/15 04:34:30;;;;;;;83.53;34.57;;;8.10;99.90;;;;;;5054207;28;20199;-66
2021/05/15 04:36:58;;;;;;;84.30;34.90;;;8.10;99.90;;;;;;5063380;28;20192;-66
2021/05/15 04:39:25;;;;;;;82.80;34.47;;;8.20;99.90;;;;;;5062095;28;20191;-66
2021/05/15 04:41:53;;;;;;;83.70;35.47;;;8.20;99.90;;;;;;5062162;28;20675;-67
2021/05/15 04:44:20;;;;;;;86.20;36.03;;;8.20;99.90;;;;;;5062125;28;20200;-66
2021/05/15 04:46:47;;;;;;;97.17;39.03;;;8.30;99.90;;;;;;5062319;28;20200;-66
2021/05/15 04:49:14;;;;;;;84.97;36.93;;;8.40;99.90;;;;;;5062715;28;20254;-66
2021/05/15 04:51:41;;;;;;;93.57;37.73;;;8.40;99.90;;;;;;5059723;28;20196;-66
2021/05/15 04:54:08;;;;;;;98.33;38.77;;;8.50;99.90;;;;;;5059928;28;20220;-66
2021/05/15 04:56:35;;;;;;;91.07;39.47;;;8.50;99.90;;;;;;5057089;28;20920;-66
2021/05/15 04:59:05;;;;;;;95.00;40.10;;;8.50;99.90;;;;;;5061928;28;20228;-66
2021/05/15 05:01:32;;;;;;;110.83;44.53;;;8.60;99.90;;;;;;5059920;28;20561;-66
2021/05/15 05:04:03;;;;;;;108.27;46.63;;;8.60;99.90;;;;;;5058809;28;20212;-66
2021/05/15 05:06:31;;;;;;;102.93;45.07;;;8.70;99.90;;;;;;5064497;28;20656;-66
2021/05/15 05:08:58;;;;;;;110.07;44.90;;;8.70;99.90;;;;;;5063413;28;20227;-66
2021/05/15 05:11:25;;;;;;;102.13;45.43;;;8.70;99.90;;;;;;5062396;28;20273;-66
2021/05/15 05:13:51;;;;;;;104.90;44.43;;;8.70;99.90;;;;;;5062994;28;20192;-66
2021/05/15 05:16:21;;;;;;;106.00;45.97;;;8.70;99.90;;;;;;5065411;28;20740;-66
2021/05/15 05:18:47;;;;;;;116.13;46.23;;;8.80;99.90;;;;;;5063466;28;20202;-66
2021/05/15 05:21:18;;;;;;;115.83;47.70;;;8.80;99.90;;;;;;5063967;28;20191;-66
2021/05/15 05:23:44;;;;;;;118.00;48.00;;;8.80;99.90;;;;;;5063096;28;20645;-67
2021/05/15 05:26:13;;;;;;;111.43;48.07;;;8.90;99.90;;;;;;5060846;28;20196;-66
2021/05/15 05:28:41;;;;;;;114.40;48.50;;;8.90;99.90;;;;;;5061256;28;20196;-66
2021/05/15 05:31:08;;;;;;;120.53;51.93;;;9.00;99.90;;;;;;5056660;28;20223;-67
2021/05/15 05:33:37;;;;;;;115.43;51.73;;;9.10;99.90;;;;;;5064845;28;20203;-66
2021/05/15 05:36:05;;;;;;;115.17;51.17;;;9.10;99.90;;;;;;5063961;28;20208;-66
2021/05/15 05:38:33;;;;;;;115.43;50.43;;;9.20;99.90;;;;;;5059435;28;20228;-66
2021/05/15 05:40:59;;;;;;;112.73;48.87;;;9.20;99.90;;;;;;5063623;28;20184;-66
2021/05/15 05:43:26;;;;;;;108.07;49.13;;;9.30;99.90;;;;;;5061733;28;20670;-66
2021/05/15 05:45:52;;;;;;;102.93;49.43;;;9.30;99.90;;;;;;5064331;28;20196;-66
2021/05/15 05:48:19;;;;;;;98.83;46.93;;;9.40;99.90;;;;;;5059963;28;20651;-66
2021/05/15 05:50:48;;;;;;;114.40;51.03;;;9.50;99.90;;;;;;5055527;28;20209;-66
2021/05/15 05:53:14;;;;;;;105.47;50.00;;;9.60;99.90;;;;;;5064670;28;20830;-66
2021/05/15 05:55:42;;;;;;;109.93;51.43;;;9.70;99.90;;;;;;5059601;28;20207;-66
2021/05/15 05:58:09;;;;;;;109.17;50.13;;;9.80;99.90;;;;;;5058843;28;20199;-66
2021/05/15 06:00:35;;;;;;;95.37;46.73;;;9.90;99.90;;;;;;5061697;28;20315;-66
2021/05/15 06:03:02;;;;;;;94.70;46.70;;;10.10;99.90;;;;;;5064089;28;20220;-67
2021/05/15 06:05:28;;;;;;;85.50;44.50;;;10.20;99.90;;;;;;5063654;28;20227;-66
2021/05/15 06:08:05;;;;;;;91.70;45.47;;;10.20;99.90;;;;;;5056646;28;20583;-66
2021/05/15 06:10:32;;;;;;;93.33;46.50;;;10.20;99.90;;;;;;5061346;28;20220;-66
2021/05/15 06:12:59;;;;;;;95.67;47.37;;;10.20;99.90;;;;;;5060398;28;20683;-66
2021/05/15 06:15:26;;;;;;;92.57;45.67;;;10.20;99.90;;;;;;5061483;28;20261;-66
2021/05/15 06:17:52;;;;;;;83.30;42.70;;;10.20;99.90;;;;;;5066086;28;20608;-66
2021/05/15 06:20:19;;;;;;;86.90;44.33;;;10.20;99.90;;;;;;5063297;28;20209;-66
2021/05/15 06:22:46;;;;;;;82.50;41.87;;;10.30;99.90;;;;;;5056966;28;20188;-66
2021/05/15 06:25:13;;;;;;;79.07;40.80;;;10.20;99.90;;;;;;5064364;28;21476;-66
2021/05/15 06:27:40;;;;;;;85.40;41.67;;;10.20;99.90;;;;;;5063131;28;20203;-66
2021/05/15 06:30:09;;;;;;;82.17;41.07;;;10.30;99.90;;;;;;5061593;28;20247;-66
2021/05/15 06:32:36;;;;;;;77.97;41.47;;;10.40;99.90;;;;;;5041601;28;20274;-66
2021/05/15 06:35:02;;;;;;;74.93;39.80;;;10.40;99.90;;;;;;5064747;28;20191;-67
2021/05/15 06:37:29;;;;;;;84.17;42.87;;;10.50;99.90;;;;;;5058362;28;20231;-66
2021/05/15 06:39:56;;;;;;;73.93;40.37;;;10.60;99.90;;;;;;5062657;28;20188;-66
2021/05/15 06:42:22;;;;;;;73.93;40.60;;;10.70;99.90;;;;;;5059317;28;20199;-66
2021/05/15 06:44:49;;;;;;;76.97;40.57;;;10.70;99.90;;;;;;5062128;28;20203;-66
2021/05/15 06:47:17;;;;;;;77.70;40.83;;;10.70;99.90;;;;;;5057137;28;20240;-66
2021/05/15 06:49:44;;;;;;;76.13;39.07;;;10.70;99.90;;;;;;5064020;28;20208;-66
2021/05/15 06:52:10;;;;;;;72.63;38.10;;;10.70;99.90;;;;;;5061532;28;20318;-66
2021/05/15 06:54:38;;;;;;;66.27;36.83;;;10.70;99.90;;;;;;5064744;28;20586;-66
2021/05/15 06:57:06;;;;;;;61.00;34.47;;;10.50;99.90;;;;;;5061887;28;20741;-67
2021/05/15 06:59:33;;;;;;;56.37;30.77;;;10.50;99.90;;;;;;5067961;28;20200;-66
2021/05/15 07:02:02;;;;;;;54.80;29.07;;;10.60;99.90;;;;;;5065930;28;20199;-66
2021/05/15 07:04:30;;;;;;;52.07;29.77;;;10.40;99.90;;;;;;5070203;28;20196;-67
2021/05/15 07:06:57;;;;;;;47.47;27.80;;;10.40;99.90;;;;;;5060803;28;20192;-66
2021/05/15 07:09:24;;;;;;;47.33;26.63;;;10.40;99.90;;;;;;5071089;28;20200;-66
2021/05/15 07:11:58;;;;;;;45.43;25.43;;;10.40;99.90;;;;;;5056221;28;20278;-66
2021/05/15 07:14:25;;;;;;;47.57;25.83;;;10.40;99.90;;;;;;5065803;28;20230;-67
2021/05/15 07:16:51;;;;;;;42.53;24.40;;;10.40;99.90;;;;;;5066364;28;20222;-66
2021/05/15 07:19:18;;;;;;;42.47;25.20;;;10.40;99.90;;;;;;5066213;28;20228;-66
2021/05/15 07:21:45;;;;;;;41.37;23.67;;;10.40;99.90;;;;;;5066290;28;20746;-66
2021/05/15 07:24:12;;;;;;;41.63;23.20;;;10.30;99.90;;;;;;5063444;28;20291;-66
2021/05/15 07:26:39;;;;;;;42.93;23.23;;;10.30;99.90;;;;;;5062049;28;20349;-66
2021/05/15 07:29:05;;;;;;;38.97;22.70;;;10.30;99.90;;;;;;5063775;28;20261;-66
2021/05/15 07:31:32;;;;;;;40.90;22.30;;;10.30;99.90;;;;;;5068051;28;20219;-66
2021/05/15 07:34:01;;;;;;;38.23;22.93;;;10.30;99.90;;;;;;5060124;28;20257;-66
2021/05/15 07:36:28;;;;;;;37.30;22.40;;;10.30;99.90;;;;;;5063749;28;20192;-66
2021/05/15 07:38:55;;;;;;;43.40;22.87;;;10.30;99.90;;;;;;5068435;28;20243;-66
2021/05/15 07:41:27;;;;;;;39.40;22.63;;;10.30;99.90;;;;;;5063768;28;20682;-66
2021/05/15 07:43:54;;;;;;;36.83;21.57;;;10.20;99.90;;;;;;5062810;28;20306;-67
2021/05/15 07:46:20;;;;;;;36.70;20.67;;;10.20;99.90;;;;;;5057004;28;20198;-66
2021/05/15 07:48:47;;;;;;;39.57;21.93;;;10.20;99.90;;;;;;5064900;28;20203;-66
2021/05/15 07:51:19;;;;;;;37.20;21.97;;;10.20;99.90;;;;;;5064555;28;20216;-66
2021/05/15 07:53:46;;;;;;;39.63;21.80;;;10.30;99.90;;;;;;5063328;28;20642;-67
2021/05/15 07:56:14;;;;;;;38.37;21.83;;;10.30;99.90;;;;;;5064678;28;20188;-66
2021/05/15 07:58:44;;;;;;;40.03;23.07;;;10.50;99.90;;;;;;5063587;28;20220;-66
2021/05/15 08:01:10;;;;;;;40.20;22.40;;;10.60;99.90;;;;;;5066640;28;20643;-66
2021/05/15 08:03:37;;;;;;;37.73;22.63;;;10.80;99.90;;;;;;5064513;28;20667;-66
2021/05/15 08:06:05;;;;;;;35.83;21.13;;;10.90;99.90;;;;;;5062263;28;20196;-66
2021/05/15 08:08:31;;;;;;;36.80;21.27;;;11.00;99.90;;;;;;5067452;28;20203;-66
2021/05/15 08:10:58;;;;;;;36.00;20.30;;;11.20;99.90;;;;;;5063986;28;20208;-66
2021/05/15 08:13:26;;;;;;;35.53;20.80;;;11.20;99.90;;;;;;5064168;28;20227;-66
2021/05/15 08:15:52;;;;;;;32.00;19.53;;;11.40;99.90;;;;;;5064897;28;20192;-66
2021/05/15 08:18:19;;;;;;;32.57;19.40;;;11.50;99.90;;;;;;5064266;28;20686;-66
2021/05/15 08:20:47;;;;;;;31.83;17.80;;;11.40;99.90;;;;;;5060799;28;20192;-66
2021/05/15 08:23:14;;;;;;;32.17;17.47;;;11.40;99.90;;;;;;5059898;28;20345;-66
2021/05/15 08:25:41;;;;;;;27.63;17.90;;;11.40;99.90;;;;;;5063685;28;20592;-65
2021/05/15 08:28:12;;;;;;;30.30;17.70;;;11.40;99.90;;;;;;5062572;28;20220;-66
2021/05/15 08:30:40;;;;;;;25.93;16.83;;;11.40;99.90;;;;;;5064265;28;20804;-66
2021/05/15 08:33:08;;;;;;;25.43;15.47;;;11.40;99.90;;;;;;5051915;28;20235;-66
2021/05/15 08:35:35;;;;;;;23.27;14.40;;;11.40;99.90;;;;;;5068415;28;20204;-66
2021/05/15 08:38:03;;;;;;;22.00;14.20;;;11.50;99.90;;;;;;5067210;28;20223;-66
2021/05/15 08:40:31;;;;;;;21.23;13.67;;;11.50;99.90;;;;;;5062747;28;20195;-66
2021/05/15 08:42:58;;;;;;;19.23;13.57;;;11.50;99.90;;;;;;5064169;28;20188;-66
2021/05/15 08:45:29;;;;;;;19.80;13.63;;;11.50;99.90;;;;;;5065711;28;20184;-66
2021/05/15 08:47:57;;;;;;;20.97;13.77;;;11.60;99.90;;;;;;5064038;28;20200;-65
2021/05/15 08:50:26;;;;;;;21.70;13.00;;;11.60;99.90;;;;;;5062932;28;20315;-66
2021/05/15 08:52:54;;;;;;;20.27;13.00;;;11.70;99.90;;;;;;5066552;28;20536;-66
2021/05/15 08:55:23;;;;;;;18.87;12.30;;;11.80;99.90;;;;;;5064979;28;20211;-66
2021/05/15 08:57:50;;;;;;;20.40;12.03;;;12.10;99.90;;;;;;5065055;28;20207;-66
2021/05/15 09:00:25;;;;;;;15.67;10.60;;;12.30;99.90;;;;;;5061226;28;20555;-66
2021/05/15 09:02:53;;;;;;;15.10;10.10;;;12.50;99.90;;;;;;5062098;28;20733;-66
2021/05/15 09:05:23;;;;;;;11.27;7.60;;;12.70;99.90;;;;;;5063681;28;20275;-66
2021/05/15 09:07:53;;;;;;;15.63;8.37;;;12.80;99.90;;;;;;5063123;28;20271;-66
2021/05/15 09:10:23;;;;;;;14.27;7.93;;;12.90;99.90;;;;;;5062935;28;20204;-66
2021/05/15 09:13:07;;;;;;;9.60;8.23;;;12.80;99.90;;;;;;5060044;28;20290;-66
2021/05/15 09:15:40;;;;;;;10.60;7.37;;;13.00;99.90;;;;;;5056392;28;20230;-66
2021/05/15 09:18:08;;;;;;;12.77;7.60;;;13.00;99.90;;;;;;5065735;28;20191;-66
2021/05/15 09:20:38;;;;;;;12.97;6.97;;;12.90;99.90;;;;;;5064405;28;20191;-66
2021/05/15 09:23:18;;;;;;;9.27;7.07;;;12.90;99.90;;;;;;5061200;28;20196;-66
2021/05/15 09:25:56;;;;;;;11.53;7.60;;;12.80;99.90;;;;;;5064418;28;20259;-66
2021/05/15 09:28:38;;;;;;;8.77;7.27;;;12.90;99.90;;;;;;5065894;28;20279;-66
2021/05/15 09:31:22;;;;;;;9.63;7.30;;;12.90;99.90;;;;;;5063061;28;20791;-66
2021/05/15 09:33:53;;;;;;;11.43;7.07;;;13.00;99.90;;;;;;5064310;28;20208;-66
2021/05/15 09:36:23;;;;;;;9.10;6.83;;;12.90;99.90;;;;;;5066607;28;20303;-66
2021/05/15 09:39:10;;;;;;;10.23;6.97;;;12.90;99.90;;;;;;5061836;28;20714;-66
2021/05/15 09:41:41;;;;;;;7.87;5.97;;;12.80;99.90;;;;;;5060381;28;20196;-66
2021/05/15 09:44:10;;;;;;;13.90;6.47;;;12.70;99.90;;;;;;5065071;28;20196;-66
2021/05/15 09:46:40;;;;;;;12.37;7.00;;;12.60;99.90;;;;;;5063470;28;20188;-66
2021/05/15 09:49:09;;;;;;;11.47;7.20;;;12.50;99.90;;;;;;5065115;28;20638;-66
2021/05/15 09:51:39;;;;;;;10.20;6.53;;;12.50;99.90;;;;;;5062375;28;20290;-66
2021/05/15 09:54:17;;;;;;;10.03;6.83;;;12.60;99.90;;;;;;5059613;28;20204;-66
2021/05/15 09:56:57;;;;;;;7.63;5.70;;;12.70;99.90;;;;;;5057944;28;20245;-66
2021/05/15 09:59:31;;;;;;;7.77;5.00;;;12.70;99.90;;;;;;5038939;28;20712;-66
2021/05/15 10:02:01;;;;;;;7.20;5.20;;;12.50;99.90;;;;;;5058895;28;20753;-66
2021/05/15 10:04:30;;;;;;;9.60;5.60;;;12.50;99.90;;;;;;5062699;28;20188;-66
2021/05/15 10:06:59;;;;;;;9.97;5.53;;;12.40;99.90;;;;;;5058002;28;20227;-66
2021/05/15 10:09:30;;;;;;;8.57;5.40;;;12.30;99.90;;;;;;5049899;28;20663;-66
2021/05/15 10:11:58;;;;;;;6.67;5.60;;;12.10;99.90;;;;;;5058087;28;20196;-67
2021/05/15 10:14:28;;;;;;;10.23;5.67;;;11.80;99.90;;;;;;5059579;28;20212;-67
2021/05/15 10:16:56;;;;;;;9.97;5.23;;;11.60;99.90;;;;;;5056806;28;20195;-68
2021/05/15 10:19:28;;;;;;;14.80;5.50;;;11.30;99.90;;;;;;5057053;28;20195;-68
2021/05/15 10:21:57;;;;;;;9.23;6.03;;;11.00;99.90;;;;;;5058027;28;20188;-68
2021/05/15 10:24:27;;;;;;;10.97;5.80;;;10.80;99.90;;;;;;5059270;28;20254;-68
2021/05/15 10:26:59;;;;;;;8.87;6.40;;;10.80;99.90;;;;;;5061733;28;20204;-68
2021/05/15 10:29:37;;;;;;;13.07;6.63;;;10.70;99.90;;;;;;5060046;28;20601;-67
2021/05/15 10:32:09;;;;;;;11.40;7.23;;;10.80;99.90;;;;;;5059768;28;20219;-67
2021/05/15 10:34:37;;;;;;;9.57;8.23;;;10.90;99.90;;;;;;5065907;28;20940;-67
2021/05/15 10:37:15;;;;;;;13.77;8.30;;;11.20;99.90;;;;;;5056457;28;20582;-67
2021/05/15 10:39:45;;;;;;;13.20;7.73;;;11.50;99.90;;;;;;5061472;28;20216;-67
2021/05/15 10:42:13;;;;;;;16.17;9.60;;;11.70;99.90;;;;;;5060244;28;20706;-66
2021/05/15 10:44:42;;;;;;;11.60;8.30;;;12.00;99.90;;;;;;5061475;28;20748;-67
2021/05/15 10:47:10;;;;;;;10.10;7.37;;;12.30;99.90;;;;;;5060694;28;20297;-67
2021/05/15 10:49:39;;;;;;;9.53;6.30;;;12.40;99.90;;;;;;5064941;28;20184;-67
2021/05/15 10:52:09;;;;;;;13.10;5.50;;;12.40;99.90;;;;;;5070135;28;20207;-67
2021/05/15 10:54:39;;;;;;;7.73;5.70;;;12.20;99.90;;;;;;5065845;28;20295;-67
2021/05/15 10:57:09;;;;;;;10.13;4.33;;;12.10;99.90;;;;;;5066674;28;20287;-67
2021/05/15 10:59:38;;;;;;;4.53;4.07;;;11.90;99.90;;;;;;5066472;28;20805;-67
2021/05/15 11:02:08;;;;;;;4.20;3.80;;;11.80;99.90;;;;;;5060733;28;20283;-67
2021/05/15 11:04:49;;;;;;;4.77;4.00;;;11.80;99.90;;;;;;5061712;28;20202;-67
2021/05/15 11:07:20;;;;;;;6.10;4.33;;;11.70;99.90;;;;;;5060935;28;20235;-67
2021/05/15 11:10:04;;;;;;;4.27;3.90;;;11.70;99.90;;;;;;5057474;28;20200;-68
2021/05/15 11:12:41;;;;;;;8.50;4.20;;;11.70;99.90;;;;;;5052694;28;21156;-67
2021/05/15 11:15:11;;;;;;;7.80;4.77;;;11.50;99.90;;;;;;5056201;28;20192;-67
2021/05/15 11:17:40;;;;;;;5.13;4.00;;;11.40;99.90;;;;;;5058368;28;20223;-68
2021/05/15 11:20:13;;;;;;;7.10;4.00;;;11.40;99.90;;;;;;5060235;28;20200;-66
2021/05/15 11:22:43;;;;;;;5.23;4.20;;;11.30;99.90;;;;;;5057959;28;20198;-67
2021/05/15 11:25:25;;;;;;;8.13;4.13;;;11.40;99.90;;;;;;5059932;28;20227;-68
2021/05/15 11:27:56;;;;;;;4.90;3.67;;;11.50;99.90;;;;;;5059781;28;20203;-68
2021/05/15 11:30:26;;;;;;;4.53;3.70;;;11.50;99.90;;;;;;5064103;28;20196;-67
2021/05/15 11:32:59;;;;;;;3.93;3.23;;;11.50;99.90;;;;;;5055446;28;20212;-67
2021/05/15 11:35:28;;;;;;;3.47;3.17;;;11.40;99.90;;;;;;5059923;28;20192;-67
2021/05/15 11:38:07;;;;;;;5.20;3.63;;;11.30;99.90;;;;;;5056925;28;20276;-68
2021/05/15 11:40:38;;;;;;;5.07;3.30;;;11.30;99.90;;;;;;5060269;28;20196;-66
2021/05/15 11:43:07;;;;;;;3.53;3.33;;;11.40;99.90;;;;;;5058997;28;20197;-67
2021/05/15 11:45:36;;;;;;;5.53;3.40;;;11.60;99.90;;;;;;5060291;28;20624;-67
2021/05/15 11:48:10;;;;;;;4.83;3.53;;;11.80;99.90;;;;;;5060317;28;20816;-67
2021/05/15 11:50:39;;;;;;;2.90;2.80;;;11.90;99.90;;;;;;5063337;28;20196;-67
2021/05/15 11:53:07;;;;;;;3.67;3.03;;;12.10;99.90;;;;;;5055932;28;21498;-67
2021/05/15 11:55:35;;;;;;;4.23;2.80;;;12.30;99.90;;;;;;5057013;28;20200;-67
2021/05/15 11:58:04;;;;;;;3.20;2.37;;;12.40;99.90;;;;;;5063365;28;20246;-67
2021/05/15 12:00:33;;;;;;;2.60;2.40;;;12.60;99.90;;;;;;5058186;28;20196;-67
2021/05/15 12:03:05;;;;;;;4.73;2.50;;;12.60;99.90;;;;;;5061718;28;20275;-66
2021/05/15 12:05:33;;;;;;;2.40;2.20;;;12.70;99.90;;;;;;5056856;28;20192;-67
2021/05/15 12:08:10;;;;;;;5.50;2.33;;;12.80;99.90;;;;;;5054347;28;20197;-67
2021/05/15 12:10:38;;;;;;;2.43;2.30;;;12.70;99.90;;;;;;5060104;28;20231;-67
2021/05/15 12:13:06;;;;;;;2.83;2.63;;;12.60;99.90;;;;;;5055760;28;20793;-66
2021/05/15 12:15:38;;;;;;;2.60;2.40;;;12.30;99.90;;;;;;5055684;28;20200;-66
2021/05/15 12:18:06;;;;;;;2.37;2.20;;;12.00;99.90;;;;;;5056764;28;20739;-67
2021/05/15 12:20:40;;;;;;;7.50;2.63;;;11.80;99.90;;;;;;5056801;28;20204;-67
2021/05/15 12:23:14;;;;;;;3.73;2.70;;;11.70;99.90;;;;;;5060246;28;20188;-67
2021/05/15 12:25:55;;;;;;;3.17;2.80;;;11.80;99.90;;;;;;5054213;28;20211;-66
2021/05/15 12:28:25;;;;;;;3.87;2.63;;;11.70;99.90;;;;;;5060790;28;20195;-68
2021/05/15 12:30:54;;;;;;;3.10;2.87;;;11.50;99.90;;;;;;5055458;28;20290;-67
2021/05/15 12:33:25;;;;;;;3.73;3.00;;;11.50;99.90;;;;;;5057547;28;20248;-67
2021/05/15 12:36:04;;;;;;;3.47;3.10;;;11.50;99.90;;;;;;5057097;28;20219;-67
2021/05/15 12:38:34;;;;;;;3.53;3.17;;;11.50;99.90;;;;;;5056535;28;20924;-67
2021/05/15 12:41:10;;;;;;;7.60;3.30;;;11.60;99.90;;;;;;5057735;28;20199;-68
2021/05/15 12:43:39;;;;;;;4.47;4.00;;;11.60;99.90;;;;;;5063857;28;20254;-67